Time;durP1;ratioP1;P1;durP2;ratioP2;P2;SDS_P1;SDS_P2;PMS_P1;PMS_P2;Temp;Humidity;BMP_temperature;BMP_pressure;BME280_temperature;BME280_humidity;BME280_pressure;Samples;Min_cycle;Max_cycle;Signal;HPM_P1;HPM_P2
2021/01/25 00:01:48;;;;;;;14.85;9.50;;;;;;;4.50;82.10;100390.82;1767857;79;21029;-74
2021/01/25 00:04:17;;;;;;;14.80;9.80;;;;;;;4.51;82.22;100388.61;1767951;81;20953;-75
2021/01/25 00:06:46;;;;;;;15.83;9.28;;;;;;;4.53;82.18;100381.61;1767804;81;21474;-74
2021/01/25 00:09:15;;;;;;;13.65;10.10;;;;;;;4.57;82.11;100378.83;1767904;79;21790;-73
2021/01/25 00:11:44;;;;;;;12.88;9.23;;;;;;;4.62;82.02;100373.91;1767406;79;20962;-75
2021/01/25 00:14:14;;;;;;;14.23;9.53;;;;;;;4.66;82.02;100368.53;1767337;81;20954;-74
2021/01/25 00:16:42;;;;;;;16.62;10.25;;;;;;;4.68;82.05;100369.31;1767312;79;21017;-75
2021/01/25 00:19:10;;;;;;;18.85;10.32;;;;;;;4.68;81.99;100371.92;1767264;79;20994;-74
2021/01/25 00:21:38;;;;;;;15.05;9.95;;;;;;;4.67;81.99;100370.24;1767397;79;21634;-75
2021/01/25 00:24:07;;;;;;;14.40;9.03;;;;;;;4.66;81.99;100368.53;1767216;79;20942;-76
2021/01/25 00:26:35;;;;;;;16.62;9.50;;;;;;;4.67;81.82;100364.17;1767276;79;20918;-73
2021/01/25 00:29:04;;;;;;;18.48;9.40;;;;;;;4.65;81.84;100359.06;1767282;79;20932;-74
2021/01/25 00:31:32;;;;;;;17.23;10.35;;;;;;;4.61;81.82;100354.05;1767326;79;21016;-77
2021/01/25 00:33:59;;;;;;;17.70;11.03;;;;;;;4.55;81.90;100344.74;1767234;79;21776;-76
2021/01/25 00:36:28;;;;;;;18.10;12.25;;;;;;;4.49;82.05;100343.67;1767313;79;21426;-74
2021/01/25 00:38:56;;;;;;;15.65;10.72;;;;;;;4.44;82.14;100345.62;1767196;81;20970;-77
2021/01/25 00:41:23;;;;;;;19.87;10.25;;;;;;;4.43;82.15;100356.46;1767191;79;20946;-76
2021/01/25 00:43:51;;;;;;;16.93;10.15;;;;;;;4.43;82.08;100354.33;1767295;79;20954;-75
2021/01/25 00:46:19;;;;;;;15.63;10.58;;;;;;;4.42;82.14;100343.53;1767232;79;21659;-77
2021/01/25 00:48:47;;;;;;;19.10;11.57;;;;;;;4.40;82.26;100351.83;1767216;79;20974;-76
2021/01/25 00:51:15;;;;;;;14.73;11.00;;;;;;;4.36;82.32;100348.52;1767252;79;20954;-75
2021/01/25 00:53:43;;;;;;;14.90;10.23;;;;;;;4.34;82.49;100352.93;1767175;79;20950;-74
2021/01/25 00:56:12;;;;;;;14.53;9.00;;;;;;;4.35;82.49;100342.92;1767375;79;21392;-74
2021/01/25 00:58:40;;;;;;;15.58;9.00;;;;;;;4.36;82.53;100347.23;1767223;79;21374;-74
2021/01/25 01:01:08;;;;;;;13.50;9.90;;;;;;;4.37;82.58;100339.81;1767188;79;21419;-74
2021/01/25 01:03:36;;;;;;;13.70;9.73;;;;;;;4.38;82.70;100340.66;1767230;81;20954;-78
2021/01/25 01:06:04;;;;;;;16.40;11.22;;;;;;;4.37;82.75;100338.52;1767158;79;20942;-76
2021/01/25 01:08:32;;;;;;;16.65;9.75;;;;;;;4.37;82.77;100332.03;1767294;79;21104;-81
2021/01/25 01:11:01;;;;;;;18.90;9.83;;;;;;;4.37;82.71;100337.22;1767368;79;22130;-77
2021/01/25 01:13:29;;;;;;;16.42;9.63;;;;;;;4.39;82.60;100326.79;1767171;79;20989;-75
2021/01/25 01:15:59;;;;;;;11.43;8.83;;;;;;;4.39;82.53;100330.68;1767227;79;21006;-76
2021/01/25 01:18:27;;;;;;;15.90;10.08;;;;;;;4.40;82.51;100337.55;1767193;79;20949;-74
2021/01/25 01:20:55;;;;;;;16.85;10.78;;;;;;;4.35;82.46;100333.38;1767234;79;20962;-75
2021/01/25 01:23:23;;;;;;;17.48;10.10;;;;;;;4.33;82.46;100345.56;1767288;79;21362;-75
2021/01/25 01:25:52;;;;;;;17.07;10.90;;;;;;;4.32;82.32;100337.86;1767271;79;21572;-77
2021/01/25 01:28:20;;;;;;;16.90;11.18;;;;;;;4.32;82.20;100342.59;1767871;79;21017;-76
2021/01/25 01:30:50;;;;;;;18.85;10.38;;;;;;;4.32;82.10;100348.25;1769195;79;20950;-73
2021/01/25 01:33:18;;;;;;;18.98;10.88;;;;;;;4.29;82.16;100350.52;1771206;78;21061;-77
2021/01/25 01:35:46;;;;;;;20.40;12.65;;;;;;;4.25;82.09;100350.23;1767569;79;21370;-76
2021/01/25 01:38:14;;;;;;;19.23;12.63;;;;;;;4.21;82.12;100350.41;1767243;81;20961;-75
2021/01/25 01:40:43;;;;;;;20.70;11.65;;;;;;;4.19;82.29;100350.91;1767207;80;20942;-74
2021/01/25 01:43:11;;;;;;;15.60;10.70;;;;;;;4.23;82.19;100348.60;1767283;79;20994;-74
2021/01/25 01:45:39;;;;;;;20.48;12.37;;;;;;;4.24;82.07;100347.22;1767316;79;21403;-74
2021/01/25 01:48:07;;;;;;;15.60;11.25;;;;;;;4.24;82.09;100339.44;1767268;79;21860;-75
2021/01/25 01:50:35;;;;;;;17.77;11.08;;;;;;;4.27;82.11;100343.23;1767156;79;21041;-73
2021/01/25 01:53:03;;;;;;;18.20;12.30;;;;;;;4.31;81.96;100347.41;1767164;79;20974;-75
2021/01/25 01:55:31;;;;;;;17.10;11.18;;;;;;;4.34;81.70;100346.44;1767287;79;20998;-76
2021/01/25 01:57:59;;;;;;;15.43;10.78;;;;;;;4.38;81.44;100340.23;1767138;81;21036;-76
2021/01/25 02:00:27;;;;;;;18.55;11.08;;;;;;;4.38;81.29;100354.50;1762155;80;21192;-77
2021/01/25 02:02:56;;;;;;;20.72;13.53;;;;;;;4.38;81.24;100387.38;1756147;80;20958;-76
2021/01/25 02:05:23;;;;;;;18.62;11.12;;;;;;;4.34;81.28;100382.78;1756095;81;20907;-76
2021/01/25 02:07:53;;;;;;;19.30;12.30;;;;;;;4.30;81.26;100385.93;1756146;81;20966;-76
2021/01/25 02:10:22;;;;;;;19.98;12.47;;;;;;;4.27;81.20;100384.77;1756216;81;20974;-75
2021/01/25 02:12:52;;;;;;;18.73;11.53;;;;;;;4.27;81.11;100378.27;1756076;80;21378;-76
2021/01/25 02:15:20;;;;;;;21.48;12.75;;;;;;;4.30;81.04;100377.30;1756069;81;20994;-75
2021/01/25 02:17:52;;;;;;;21.00;13.03;;;;;;;4.31;80.91;100366.88;1753675;81;21496;-75
2021/01/25 02:20:44;;;;;;;23.70;14.50;;;;;;;4.32;80.83;100365.12;1756160;81;21045;-74
2021/01/25 02:23:55;;;;;;;24.02;13.03;;;;;;;4.30;80.63;100363.03;1756110;81;20971;-74
2021/01/25 02:26:45;;;;;;;23.62;13.83;;;;;;;4.28;80.57;100366.97;1756161;80;21819;-75
2021/01/25 02:29:14;;;;;;;25.88;13.55;;;;;;;4.26;80.41;100351.06;1756157;80;20966;-75
2021/01/25 02:31:42;;;;;;;25.50;15.15;;;;;;;4.24;80.47;100346.39;1756027;81;20919;-75
2021/01/25 02:34:10;;;;;;;23.95;13.90;;;;;;;4.23;80.41;100348.60;1756097;81;20988;-77
2021/01/25 02:36:38;;;;;;;29.12;14.63;;;;;;;4.19;80.52;100359.54;1756146;80;20919;-75
2021/01/25 02:39:06;;;;;;;24.45;15.58;;;;;;;4.18;80.53;100345.31;1756219;80;21794;-74
2021/01/25 02:41:34;;;;;;;22.10;13.62;;;;;;;4.16;80.50;100337.61;1756064;81;20959;-74
2021/01/25 02:44:03;;;;;;;20.85;12.60;;;;;;;4.12;80.48;100329.08;1753539;81;21006;-74
2021/01/25 02:46:31;;;;;;;20.77;12.70;;;;;;;4.11;80.46;100328.70;1756109;81;21021;-76
2021/01/25 02:48:59;;;;;;;21.17;13.32;;;;;;;4.05;80.42;100322.44;1756102;80;21065;-74
2021/01/25 02:51:27;;;;;;;16.95;12.25;;;;;;;3.97;80.52;100324.47;1756103;81;21809;-75
2021/01/25 02:53:54;;;;;;;23.05;13.60;;;;;;;3.87;80.68;100314.90;1756074;81;20978;-74
2021/01/25 02:56:22;;;;;;;23.80;14.47;;;;;;;3.79;80.84;100322.56;1756152;80;21468;-74
2021/01/25 02:58:51;;;;;;;20.27;13.95;;;;;;;3.73;80.88;100324.92;1756098;81;21006;-75
2021/01/25 03:01:18;;;;;;;22.73;13.10;;;;;;;3.67;80.96;100326.00;1770315;79;21035;-75
2021/01/25 03:03:47;;;;;;;20.23;12.63;;;;;;;3.69;80.96;100337.59;1790604;79;21354;-75
2021/01/25 03:06:15;;;;;;;25.40;13.85;;;;;;;3.67;80.84;100339.42;1790562;80;20951;-75
2021/01/25 03:08:44;;;;;;;21.07;11.78;;;;;;;3.65;80.87;100337.34;1790536;80;20987;-75
2021/01/25 03:11:17;;;;;;;17.17;11.28;;;;;;;3.61;81.01;100326.67;1773601;80;21409;-75
2021/01/25 03:13:43;;;;;;;19.73;12.43;;;;;;;3.57;81.12;100332.87;1790430;79;21461;-75
2021/01/25 03:16:15;;;;;;;16.42;10.88;;;;;;;3.52;81.19;100327.84;1790606;79;21239;-75
2021/01/25 03:18:43;;;;;;;21.93;13.68;;;;;;;3.53;81.20;100330.82;1790517;80;20964;-75
2021/01/25 03:21:11;;;;;;;18.35;10.82;;;;;;;3.50;81.24;100330.94;1790531;80;21027;-76
2021/01/25 03:23:40;;;;;;;18.92;11.48;;;;;;;3.46;81.39;100331.48;1790630;80;20928;-75
2021/01/25 03:26:08;;;;;;;19.85;12.15;;;;;;;3.44;81.54;100345.41;1791800;79;20904;-74
2021/01/25 03:28:38;;;;;;;17.00;11.85;;;;;;;3.40;81.65;100345.11;1793570;79;21816;-74
2021/01/25 03:31:05;;;;;;;16.80;12.03;;;;;;;3.37;81.79;100337.45;1793481;80;20920;-76
2021/01/25 03:33:33;;;;;;;18.42;13.08;;;;;;;3.37;81.84;100349.95;1793623;79;20940;-79
2021/01/25 03:36:02;;;;;;;18.70;12.33;;;;;;;3.36;81.94;100361.23;1792410;80;21039;-74
2021/01/25 03:38:30;;;;;;;18.65;11.63;;;;;;;3.39;82.06;100365.47;1791852;79;21019;-74
2021/01/25 03:40:58;;;;;;;19.32;12.88;;;;;;;3.43;82.16;100371.78;1791355;80;21806;-75
2021/01/25 03:43:26;;;;;;;17.40;11.93;;;;;;;3.49;82.17;100366.39;1791009;79;20956;-78
2021/01/25 03:45:54;;;;;;;16.57;11.63;;;;;;;3.56;81.92;100358.38;1790814;80;20960;-76
2021/01/25 03:48:22;;;;;;;15.88;10.75;;;;;;;3.58;81.84;100358.75;1790948;80;20960;-77
2021/01/25 03:50:50;;;;;;;14.78;10.80;;;;;;;3.63;81.70;100358.13;1790937;79;21035;-76
2021/01/25 03:53:18;;;;;;;15.53;11.10;;;;;;;3.63;81.69;100354.70;1790901;79;21834;-75
2021/01/25 03:55:46;;;;;;;18.37;11.75;;;;;;;3.61;81.77;100345.66;1790963;79;20968;-75
2021/01/25 03:58:14;;;;;;;18.55;11.57;;;;;;;3.60;81.87;100353.48;1790872;80;20964;-74
2021/01/25 04:00:42;;;;;;;17.45;10.85;;;;;;;3.62;81.95;100351.69;1790519;79;21015;-78
2021/01/25 04:03:10;;;;;;;13.28;9.63;;;;;;;3.66;81.89;100364.94;1767484;81;20974;-75
2021/01/25 04:05:38;;;;;;;15.65;11.40;;;;;;;3.71;81.71;100352.22;1767598;81;22682;-75
2021/01/25 04:08:06;;;;;;;18.02;10.90;;;;;;;3.72;81.56;100350.02;1767352;80;20958;-74
2021/01/25 04:10:34;;;;;;;16.48;11.90;;;;;;;3.74;81.58;100359.05;1767448;79;20957;-75
2021/01/25 04:13:03;;;;;;;20.12;12.25;;;;;;;3.74;81.55;100353.86;1767300;79;21026;-75
2021/01/25 04:15:31;;;;;;;16.85;11.85;;;;;;;3.74;81.55;100353.86;1767492;79;21052;-76
2021/01/25 04:18:00;;;;;;;27.93;13.58;;;;;;;3.73;81.53;100347.83;1767396;81;21649;-77
2021/01/25 04:20:29;;;;;;;22.10;14.23;;;;;;;3.70;81.55;100353.11;1767312;81;21049;-75
2021/01/25 04:22:57;;;;;;;20.40;14.13;;;;;;;3.73;81.61;100351.72;1767455;79;20973;-76
2021/01/25 04:25:25;;;;;;;21.60;13.62;;;;;;;3.79;81.54;100346.75;1767372;81;20934;-76
2021/01/25 04:27:53;;;;;;;23.47;16.48;;;;;;;3.77;81.44;100344.66;1767476;79;20922;-79
2021/01/25 04:30:24;;;;;;;25.00;15.20;;;;;;;3.73;81.73;100359.92;1767927;79;22236;-77
2021/01/25 04:32:51;;;;;;;26.73;15.90;;;;;;;3.74;81.84;100356.45;1767409;79;21021;-76
2021/01/25 04:35:20;;;;;;;25.48;17.52;;;;;;;3.75;81.83;100356.83;1767485;79;21112;-75
2021/01/25 04:37:49;;;;;;;24.35;15.65;;;;;;;3.78;81.77;100359.34;1767430;81;21469;-77
2021/01/25 04:40:17;;;;;;;21.57;14.80;;;;;;;3.78;81.89;100353.28;1767302;79;21526;-75
2021/01/25 04:42:45;;;;;;;29.40;16.15;;;;;;;3.81;81.97;100353.19;1767369;81;21221;-76
2021/01/25 04:45:15;;;;;;;35.73;17.73;;;;;;;3.84;82.02;100342.69;1767317;79;20949;-76
2021/01/25 04:47:47;;;;;;;32.63;17.30;;;;;;;3.88;82.04;100342.97;1767227;79;20986;-75
2021/01/25 04:50:17;;;;;;;30.48;17.55;;;;;;;3.93;81.90;100336.73;1767284;79;20950;-77
2021/01/25 04:52:46;;;;;;;32.50;18.65;;;;;;;3.94;81.69;100338.41;1767282;81;20954;-75
2021/01/25 04:55:21;;;;;;;25.80;15.88;;;;;;;3.98;81.66;100344.77;1767287;81;21202;-77
2021/01/25 04:57:49;;;;;;;24.85;17.00;;;;;;;3.95;81.63;100336.19;1767243;79;21048;-75
2021/01/25 05:00:20;;;;;;;24.45;17.07;;;;;;;3.97;81.77;100342.63;1767296;79;21061;-76
2021/01/25 05:02:47;;;;;;;32.33;19.07;;;;;;;3.97;81.95;100343.92;1767240;79;21328;-76
2021/01/25 05:05:15;;;;;;;34.15;20.10;;;;;;;3.98;82.07;100339.58;1767366;79;20930;-76
2021/01/25 05:07:43;;;;;;;31.15;18.55;;;;;;;3.99;82.01;100339.53;1767298;79;21301;-75
2021/01/25 05:10:12;;;;;;;31.15;17.40;;;;;;;4.02;81.95;100344.59;1767322;81;21025;-77
2021/01/25 05:12:47;;;;;;;28.00;18.25;;;;;;;4.05;81.98;100339.30;1767324;79;21009;-76
2021/01/25 05:15:31;;;;;;;33.65;21.40;;;;;;;4.08;82.12;100346.13;1767274;79;20966;-76
2021/01/25 05:18:12;;;;;;;32.05;19.85;;;;;;;4.09;82.21;100337.42;1767444;81;21645;-76
2021/01/25 05:20:42;;;;;;;36.30;20.17;;;;;;;4.13;82.16;100340.30;1767330;81;21222;-78
2021/01/25 05:23:18;;;;;;;;;;;;;;;4.10;82.20;100349.05;1769319;79;21554;-76
2021/01/25 05:26:01;;;;;;;39.60;22.95;;;;;;;4.10;82.40;100349.52;1767252;79;20152;-73
2021/01/25 05:28:24;;;;;;;34.35;20.65;;;;;;;4.09;82.50;100353.86;1730792;82;20991;-75
2021/01/25 05:30:59;;;;;;;37.78;22.30;;;;;;;4.12;82.52;100347.70;1730676;83;20993;-73
2021/01/25 05:33:27;;;;;;;38.88;21.80;;;;;;;4.14;82.45;100349.80;1705933;83;21840;-75
2021/01/25 05:35:55;;;;;;;35.28;21.40;;;;;;;4.17;82.60;100357.45;1730926;82;20963;-73
2021/01/25 05:38:30;;;;;;;38.35;23.10;;;;;;;4.19;82.68;100354.34;1732104;83;20966;-73
2021/01/25 05:40:56;;;;;;;41.95;25.37;;;;;;;4.22;82.71;100359.88;1733692;81;20914;-74
2021/01/25 05:43:33;;;;;;;40.50;24.63;;;;;;;4.21;82.62;100353.84;1730675;83;20918;-74
2021/01/25 05:46:09;;;;;;;44.25;24.72;;;;;;;4.24;82.75;100351.58;1730616;82;21428;-73
2021/01/25 05:48:41;;;;;;;38.65;23.65;;;;;;;4.30;82.66;100353.95;1730525;81;20981;-73
2021/01/25 05:51:21;;;;;;;36.28;21.87;;;;;;;4.33;82.63;100351.22;1730490;81;20994;-76
2021/01/25 05:53:55;;;;;;;38.45;20.80;;;;;;;4.35;82.67;100347.66;1730508;81;20938;-72
2021/01/25 05:56:25;;;;;;;37.67;20.77;;;;;;;4.38;82.71;100342.82;1716489;81;20970;-74
2021/01/25 05:58:53;;;;;;;47.27;23.73;;;;;;;4.42;82.70;100342.23;1730538;81;21406;-72
2021/01/25 06:01:22;;;;;;;49.38;25.52;;;;;;;4.43;82.51;100343.48;1730238;83;21026;-73
2021/01/25 06:03:51;;;;;;;59.77;31.73;;;;;;;4.42;82.48;100343.53;1727616;83;21040;-71
2021/01/25 06:06:35;;;;;;;33.30;20.82;;;;;;;4.44;82.44;100346.45;1727590;83;21016;-73
2021/01/25 06:09:12;;;;;;;36.25;24.07;;;;;;;4.48;82.35;100340.24;1727535;83;20946;-73
2021/01/25 06:11:44;;;;;;;37.58;22.00;;;;;;;4.48;82.43;100342.00;1727651;83;22282;-73
2021/01/25 06:14:24;;;;;;;40.25;23.90;;;;;;;4.51;82.42;100347.93;1727598;83;20990;-74
2021/01/25 06:16:54;;;;;;;48.75;24.75;;;;;;;4.51;82.51;100349.66;1727639;83;21017;-72
2021/01/25 06:19:25;;;;;;;50.73;25.12;;;;;;;4.54;82.53;100338.71;1727549;83;21053;-73
2021/01/25 06:21:53;;;;;;;41.05;24.18;;;;;;;4.60;82.57;100342.80;1727661;83;21373;-72
2021/01/25 06:24:21;;;;;;;46.80;24.77;;;;;;;4.68;82.32;100348.54;1727661;83;21412;-71
2021/01/25 06:26:49;;;;;;;36.38;20.95;;;;;;;4.74;82.09;100347.46;1727533;83;21066;-72
2021/01/25 06:29:18;;;;;;;40.48;23.95;;;;;;;4.80;82.06;100345.05;1727656;83;20951;-71
2021/01/25 06:31:55;;;;;;;36.98;24.20;;;;;;;4.87;81.97;100343.89;1727539;83;20982;-72
2021/01/25 06:34:25;;;;;;;43.30;24.57;;;;;;;4.92;81.70;100345.41;1727657;83;20935;-73
2021/01/25 06:36:55;;;;;;;37.95;22.15;;;;;;;4.97;81.48;100344.75;1727595;83;21369;-73
2021/01/25 06:39:28;;;;;;;37.38;22.98;;;;;;;5.02;81.34;100342.42;1727649;83;20994;-73
2021/01/25 06:42:04;;;;;;;41.45;23.65;;;;;;;5.07;81.08;100343.94;1727587;81;20939;-74
2021/01/25 06:44:33;;;;;;;37.10;23.22;;;;;;;5.12;80.97;100341.14;1727693;83;21033;-75
2021/01/25 06:47:04;;;;;;;36.85;20.05;;;;;;;5.15;80.90;100341.00;1727676;81;21566;-73
2021/01/25 06:49:33;;;;;;;42.17;19.30;;;;;;;5.16;80.79;100344.02;1727627;83;21811;-73
2021/01/25 06:52:01;;;;;;;35.38;18.45;;;;;;;5.17;80.75;100339.19;1727454;83;21007;-74
2021/01/25 06:54:29;;;;;;;34.55;20.20;;;;;;;5.17;80.74;100340.48;1727542;83;21041;-75
2021/01/25 06:56:59;;;;;;;40.10;19.67;;;;;;;5.18;80.76;100339.59;1727556;81;21012;-74
2021/01/25 06:59:34;;;;;;;30.70;17.02;;;;;;;5.22;80.66;100329.43;1727702;83;21508;-75
2021/01/25 07:01:59;;;;;;;29.60;15.65;;;;;;;5.27;80.62;100338.33;1727337;83;21454;-73
2021/01/25 07:04:30;;;;;;;24.02;14.53;;;;;;;5.31;80.58;100335.53;1727500;83;21018;-73
2021/01/25 07:06:58;;;;;;;30.92;16.62;;;;;;;5.37;80.52;100344.84;1727553;81;20934;-73
2021/01/25 07:09:31;;;;;;;22.48;14.55;;;;;;;5.43;80.44;100331.58;1727551;83;20919;-74
2021/01/25 07:12:03;;;;;;;26.25;15.28;;;;;;;5.51;80.23;100335.14;1727661;83;20998;-74
2021/01/25 07:14:32;;;;;;;29.00;15.18;;;;;;;5.56;79.94;100336.64;1727518;83;20992;-72
2021/01/25 07:17:00;;;;;;;40.90;15.60;;;;;;;5.63;79.73;100338.52;1727548;83;21510;-73
2021/01/25 07:19:32;;;;;;;26.05;13.98;;;;;;;5.68;79.59;100331.34;1727557;81;21089;-73
2021/01/25 07:21:59;;;;;;;25.40;12.68;;;;;;;5.74;79.42;100345.39;1727594;81;21005;-74
2021/01/25 07:24:27;;;;;;;26.97;14.53;;;;;;;5.78;79.27;100346.08;1701236;83;20954;-72
2021/01/25 07:27:00;;;;;;;26.85;14.13;;;;;;;5.83;79.24;100339.39;1727742;83;22530;-75
2021/01/25 07:29:28;;;;;;;25.10;15.80;;;;;;;5.88;78.98;100342.63;1727705;82;20978;-72
2021/01/25 07:31:58;;;;;;;20.35;13.38;;;;;;;5.91;78.83;100351.12;1727686;83;21395;-72
2021/01/25 07:34:30;;;;;;;22.95;14.95;;;;;;;5.99;78.66;100341.72;1727739;81;20951;-72
2021/01/25 07:36:56;;;;;;;25.80;12.33;;;;;;;6.04;78.49;100333.23;1727747;83;20923;-73
2021/01/25 07:39:24;;;;;;;25.48;13.18;;;;;;;6.09;78.35;100329.11;1727715;81;21824;-73
2021/01/25 07:41:53;;;;;;;28.40;13.20;;;;;;;6.12;78.29;100324.63;1727696;83;20986;-73
2021/01/25 07:44:21;;;;;;;25.55;15.05;;;;;;;6.20;78.05;100326.85;1727666;83;20985;-75
2021/01/25 07:46:50;;;;;;;27.42;14.87;;;;;;;6.31;77.90;100321.14;1727662;81;20915;-73
2021/01/25 07:49:26;;;;;;;29.00;14.50;;;;;;;6.41;77.29;100323.25;1727814;83;20946;-78
2021/01/25 07:51:54;;;;;;;28.80;15.32;;;;;;;6.53;77.00;100317.06;1727775;83;21374;-75
2021/01/25 07:54:24;;;;;;;31.40;17.15;;;;;;;6.64;76.78;100315.62;1727824;81;20974;-75
2021/01/25 07:56:53;;;;;;;34.35;16.65;;;;;;;6.73;76.29;100312.19;1727652;83;21002;-74
2021/01/25 07:59:23;;;;;;;31.33;16.77;;;;;;;6.78;76.07;100328.44;1727688;83;20914;-74
2021/01/25 08:02:02;;;;;;;32.85;17.40;;;;;;;6.81;75.84;100328.30;1727689;83;21021;-75
2021/01/25 08:04:43;;;;;;;35.78;19.40;;;;;;;6.87;75.76;100322.80;1890022;75;22729;-75
2021/01/25 08:07:14;;;;;;;25.68;13.85;;;;;;;6.87;75.55;100328.45;1860955;77;20950;-73
2021/01/25 08:09:43;;;;;;;28.15;14.85;;;;;;;6.91;75.43;100323.47;1823274;78;21347;-73
2021/01/25 08:12:11;;;;;;;27.65;14.35;;;;;;;6.93;75.22;100327.68;1823115;78;21017;-74
2021/01/25 08:14:50;;;;;;;23.00;13.53;;;;;;;6.94;75.26;100322.88;1823108;78;20995;-74
2021/01/25 08:17:30;;;;;;;21.15;12.73;;;;;;;6.95;75.32;100329.75;1823166;78;20932;-72
2021/01/25 08:20:03;;;;;;;22.00;14.75;;;;;;;7.00;75.37;100327.78;1823125;78;21087;-69
2021/01/25 08:23:02;;;;;;;25.57;14.65;;;;;;;7.03;75.18;100343.27;1823146;78;21366;-69
2021/01/25 08:25:31;;;;;;;21.75;11.93;;;;;;;7.04;75.34;100320.17;1823084;78;20992;-69
2021/01/25 08:28:06;;;;;;;21.02;12.30;;;;;;;7.13;75.26;100333.67;1823125;78;20917;-70
2021/01/25 08:30:38;;;;;;;20.23;11.30;;;;;;;7.15;75.30;100327.92;1823199;78;20963;-69
2021/01/25 08:33:09;;;;;;;23.05;12.45;;;;;;;7.22;75.33;100323.61;1823116;78;20932;-70
2021/01/25 08:35:56;;;;;;;20.92;12.50;;;;;;;7.30;75.24;100320.62;1823194;78;21377;-71
2021/01/25 08:38:30;;;;;;;21.23;13.28;;;;;;;7.36;75.02;100319.02;1823068;78;20917;-71
2021/01/25 08:41:01;;;;;;;23.98;13.15;;;;;;;7.48;74.78;100316.22;1791844;78;20940;-69
2021/01/25 08:43:32;;;;;;;24.37;14.40;;;;;;;7.53;74.64;100320.73;1823026;78;20940;-69
2021/01/25 08:46:15;;;;;;;23.92;13.45;;;;;;;7.58;74.51;100313.52;1823232;78;21598;-70
2021/01/25 08:48:44;;;;;;;18.77;11.20;;;;;;;7.65;74.28;100305.75;1823110;78;21374;-69
2021/01/25 08:51:17;;;;;;;19.25;11.08;;;;;;;7.72;74.08;100303.66;1823119;78;21568;-70
2021/01/25 08:53:45;;;;;;;18.62;12.18;;;;;;;7.77;74.04;100309.94;1823104;78;20931;-70
2021/01/25 08:56:18;;;;;;;19.52;12.10;;;;;;;7.81;73.92;100298.41;1823028;78;20975;-69
2021/01/25 08:58:46;;;;;;;24.82;12.58;;;;;;;7.88;73.70;100293.23;1823492;78;20940;-69
2021/01/25 09:01:21;;;;;;;22.93;14.20;;;;;;;7.96;73.48;100284.53;1823386;78;21356;-68
2021/01/25 09:03:49;;;;;;;26.27;14.18;;;;;;;8.01;73.19;100281.66;1803967;78;20906;-70
2021/01/25 09:06:17;;;;;;;20.23;11.93;;;;;;;8.06;73.17;100277.86;1774714;80;20937;-68
2021/01/25 09:08:45;;;;;;;24.05;11.80;;;;;;;8.17;72.81;100276.44;1774685;80;21494;-68
2021/01/25 09:11:13;;;;;;;23.05;11.95;;;;;;;8.27;72.69;100270.62;1774696;80;20991;-69
2021/01/25 09:13:41;;;;;;;21.45;12.82;;;;;;;8.37;72.43;100270.92;1774691;79;22224;-70
2021/01/25 09:16:09;;;;;;;25.50;13.80;;;;;;;8.48;72.05;100265.13;1774081;79;21025;-69
2021/01/25 09:18:37;;;;;;;26.27;14.53;;;;;;;8.60;71.94;100266.19;1774136;80;20923;-69
2021/01/25 09:21:05;;;;;;;20.72;12.07;;;;;;;8.73;71.50;100263.72;1774119;80;20902;-68
2021/01/25 09:23:33;;;;;;;22.10;12.03;;;;;;;8.81;71.11;100267.58;1774116;80;20961;-71
2021/01/25 09:26:01;;;;;;;16.67;11.40;;;;;;;8.85;70.75;100257.79;1774103;80;21799;-71
2021/01/25 09:28:29;;;;;;;20.85;12.28;;;;;;;8.83;70.60;100260.95;1773992;80;20914;-70
2021/01/25 09:30:57;;;;;;;19.45;11.00;;;;;;;8.87;70.56;100262.44;1774743;79;20933;-73
2021/01/25 09:33:24;;;;;;;22.98;11.70;;;;;;;8.91;70.45;100260.88;1774398;80;20918;-68
2021/01/25 09:35:53;;;;;;;21.15;10.63;;;;;;;8.96;70.16;100258.00;1774646;80;21112;-70
2021/01/25 09:38:21;;;;;;;28.77;11.45;;;;;;;8.96;69.89;100251.45;1774724;79;22368;-70
2021/01/25 09:40:50;;;;;;;20.27;12.58;;;;;;;8.99;70.07;100260.42;1774013;80;21068;-69
2021/01/25 09:43:19;;;;;;;17.50;10.98;;;;;;;9.04;70.12;100269.30;1774066;80;20937;-71
2021/01/25 09:45:47;;;;;;;18.92;10.82;;;;;;;9.07;69.52;100269.10;1774143;80;21483;-71
2021/01/25 09:48:15;;;;;;;20.95;10.53;;;;;;;9.03;69.33;100258.47;1774069;80;20937;-71
2021/01/25 09:50:47;;;;;;;26.55;11.15;;;;;;;9.01;69.31;100266.88;1774066;80;22132;-73
2021/01/25 09:53:17;;;;;;;20.12;10.10;;;;;;;9.01;69.53;100256.41;1774054;80;21482;-73
2021/01/25 09:55:45;;;;;;;21.20;10.58;;;;;;;8.99;69.61;100255.66;1774200;79;20958;-73
2021/01/25 09:58:14;;;;;;;15.72;10.55;;;;;;;9.00;69.58;100239.02;1774065;80;20997;-73
2021/01/25 10:00:41;;;;;;;23.90;11.63;;;;;;;9.00;69.45;100246.39;1774028;80;20997;-74
2021/01/25 10:03:09;;;;;;;17.73;10.68;;;;;;;9.00;69.59;100240.33;1777066;79;21820;-72
2021/01/25 10:05:37;;;;;;;19.60;10.13;;;;;;;9.00;69.52;100239.86;1802673;79;20914;-74
2021/01/25 10:08:05;;;;;;;18.02;10.85;;;;;;;8.99;69.32;100228.20;1802739;79;21356;-72
2021/01/25 10:10:34;;;;;;;16.15;10.63;;;;;;;8.94;69.46;100223.25;1802767;79;20990;-73
2021/01/25 10:13:02;;;;;;;15.95;10.05;;;;;;;8.93;69.68;100222.38;1802740;79;21434;-73
2021/01/25 10:15:30;;;;;;;18.65;10.15;;;;;;;8.96;69.88;100223.13;1802841;79;22675;-73
2021/01/25 10:17:58;;;;;;;21.37;11.65;;;;;;;8.95;69.95;100218.38;1802793;79;20930;-72
2021/01/25 10:20:27;;;;;;;15.23;11.43;;;;;;;8.95;69.93;100217.55;1802687;79;20934;-71
2021/01/25 10:22:56;;;;;;;23.85;12.90;;;;;;;8.96;69.94;100216.59;1802755;79;20919;-71
2021/01/25 10:25:24;;;;;;;32.45;16.87;;;;;;;8.95;69.85;100216.23;1802773;79;21001;-74
2021/01/25 10:27:52;;;;;;;23.20;12.40;;;;;;;8.89;69.89;100212.20;1802676;79;21817;-71
2021/01/25 10:30:20;;;;;;;17.55;11.22;;;;;;;8.87;70.26;100200.55;1802712;79;21013;-72
2021/01/25 10:32:48;;;;;;;17.52;10.43;;;;;;;8.85;70.51;100197.65;1771779;79;20929;-72
2021/01/25 10:35:19;;;;;;;20.35;10.55;;;;;;;8.82;70.94;100188.66;1802708;79;20890;-73
2021/01/25 10:37:47;;;;;;;17.77;10.65;;;;;;;8.78;71.39;100178.88;1802766;79;20910;-72
2021/01/25 10:40:17;;;;;;;18.57;11.45;;;;;;;8.75;71.82;100176.42;1802712;79;21256;-73
2021/01/25 10:42:45;;;;;;;16.87;11.33;;;;;;;8.67;72.10;100186.04;1802746;79;21328;-72
2021/01/25 10:45:14;;;;;;;18.40;11.55;;;;;;;8.58;72.33;100184.41;1802756;79;20992;-72
2021/01/25 10:47:41;;;;;;;14.07;11.03;;;;;;;8.51;72.63;100174.78;1802685;79;20981;-74
2021/01/25 10:50:11;;;;;;;16.93;11.22;;;;;;;8.52;72.84;100172.56;1802730;79;20918;-73
2021/01/25 10:52:41;;;;;;;17.67;11.78;;;;;;;8.52;73.06;100172.56;1802129;79;21479;-72
2021/01/25 10:55:09;;;;;;;20.43;12.90;;;;;;;8.53;73.16;100168.17;1789814;79;21482;-73
2021/01/25 10:57:39;;;;;;;17.73;12.03;;;;;;;8.63;73.18;100169.33;1771164;81;21311;-73
2021/01/25 11:00:16;;;;;;;21.75;12.15;;;;;;;8.75;72.88;100171.67;1771009;80;21107;-71
2021/01/25 11:02:44;;;;;;;15.78;10.32;;;;;;;8.90;72.79;100166.35;1771069;81;20976;-75
2021/01/25 11:05:15;;;;;;;15.43;10.03;;;;;;;9.10;72.09;100162.53;1770919;81;21201;-72
2021/01/25 11:07:43;;;;;;;22.25;12.30;;;;;;;9.26;71.33;100160.28;1770997;81;21000;-71
2021/01/25 11:10:16;;;;;;;22.52;12.35;;;;;;;9.43;71.09;100160.55;1771007;81;21012;-71
2021/01/25 11:12:44;;;;;;;25.77;11.70;;;;;;;9.60;70.75;100151.61;1771124;81;21362;-72
2021/01/25 11:15:13;;;;;;;22.27;11.70;;;;;;;9.78;69.93;100147.81;1771067;80;21000;-74
2021/01/25 11:18:21;;;;;;;21.62;11.48;;;;;;;9.96;69.16;100142.72;1777154;79;23193;-73
2021/01/25 11:20:49;;;;;;;19.75;11.00;;;;;;;9.96;69.18;100140.09;1749626;82;20935;-72
2021/01/25 11:23:17;;;;;;;22.52;10.90;;;;;;;10.03;69.30;100137.91;1749589;82;21190;-72
2021/01/25 11:25:45;;;;;;;17.80;8.90;;;;;;;10.14;69.01;100135.91;1749526;82;21014;-75
2021/01/25 11:28:13;;;;;;;17.32;9.63;;;;;;;10.21;68.15;100141.58;1749579;80;21089;-72
2021/01/25 11:30:41;;;;;;;15.10;8.05;;;;;;;10.22;67.98;100128.83;1749547;80;20962;-73